createdAt,value
2023-01-03T00:00:31.129Z,7.90
2023-01-03T00:02:33.683Z,7.90
2023-01-03T00:04:36.279Z,8.00
2023-01-03T00:06:40.535Z,8.00
2023-01-03T00:08:42.998Z,8.00
2023-01-03T00:10:45.482Z,8.00
2023-01-03T00:12:48.065Z,8.00
2023-01-03T00:14:50.530Z,7.90
2023-01-03T00:16:54.330Z,7.90
2023-01-03T00:18:57.044Z,7.90
2023-01-03T00:21:03.455Z,7.90
2023-01-03T00:23:06.227Z,7.90
2023-01-03T00:25:09.303Z,7.80
2023-01-03T00:27:11.931Z,7.80
2023-01-03T00:29:14.858Z,7.70
2023-01-03T00:31:17.512Z,7.70
2023-01-03T00:33:20.138Z,7.70
2023-01-03T00:35:22.789Z,7.60
2023-01-03T00:37:26.526Z,8.80
2023-01-03T00:39:29.192Z,7.30
2023-01-03T00:41:32.085Z,7.80
2023-01-03T00:43:35.058Z,7.70
2023-01-03T00:45:37.736Z,7.70
2023-01-03T00:47:40.673Z,7.70
2023-01-03T00:49:43.176Z,7.70
2023-01-03T00:51:45.819Z,7.70
2023-01-03T00:53:50.143Z,7.70
2023-01-03T00:55:52.767Z,7.60
2023-01-03T00:57:56.194Z,7.60
2023-01-03T00:59:58.702Z,7.50
2023-01-03T01:02:01.460Z,7.60
2023-01-03T01:04:05.195Z,7.50
2023-01-03T01:06:11.485Z,7.50
2023-01-03T01:08:14.023Z,7.50
2023-01-03T01:10:18.947Z,7.40
2023-01-03T01:12:21.463Z,7.40
2023-01-03T01:14:25.056Z,7.40
2023-01-03T01:16:29.439Z,7.40
2023-01-03T01:18:32.430Z,7.40
2023-01-03T01:20:34.912Z,7.30
2023-01-03T01:22:37.392Z,7.30
2023-01-03T01:24:40.270Z,7.30
2023-01-03T01:26:43.197Z,7.30
2023-01-03T01:28:45.700Z,7.20
2023-01-03T01:30:48.221Z,7.20
2023-01-03T01:32:50.868Z,7.20
2023-01-03T01:34:53.381Z,7.20
2023-01-03T01:36:56.135Z,7.10
2023-01-03T01:38:59.495Z,7.10
2023-01-03T01:41:02.553Z,7.10
2023-01-03T01:43:31.883Z,7.10
2023-01-03T01:45:34.900Z,7.10
2023-01-03T01:47:39.224Z,7.10
2023-01-03T01:49:42.720Z,7.10
2023-01-03T01:51:45.183Z,7.10
2023-01-03T01:53:47.672Z,7.10
2023-01-03T01:55:52.116Z,7.10
2023-01-03T01:57:54.841Z,7.10
2023-01-03T01:59:57.359Z,7.00
2023-01-03T02:01:59.914Z,7.00
2023-01-03T02:04:04.663Z,7.00
2023-01-03T02:06:09.215Z,7.10
2023-01-03T02:08:11.686Z,7.10
2023-01-03T02:10:14.339Z,7.10
2023-01-03T02:12:36.801Z,7.10
2023-01-03T02:14:42.031Z,7.10
2023-01-03T02:16:53.688Z,7.10
2023-01-03T02:18:59.337Z,7.10
2023-01-03T02:21:08.671Z,7.10
2023-01-03T02:23:33.328Z,7.10
2023-01-03T02:25:41.603Z,7.10
2023-01-03T02:28:06.316Z,7.10
2023-01-03T02:30:23.211Z,7.10
2023-01-03T02:32:28.484Z,7.10
2023-01-03T02:34:34.299Z,7.10
2023-01-03T02:36:38.716Z,7.00
2023-01-03T02:38:44.774Z,6.90
2023-01-03T02:40:49.051Z,7.00
2023-01-03T02:43:01.037Z,6.90
2023-01-03T02:45:07.157Z,7.00
2023-01-03T02:47:11.471Z,6.90
2023-01-03T02:49:16.509Z,6.90
2023-01-03T02:51:21.639Z,6.90
2023-01-03T02:53:26.176Z,6.90
2023-01-03T02:55:30.643Z,6.80
2023-01-03T02:57:36.117Z,6.80
2023-01-03T02:59:40.440Z,6.80
2023-01-03T03:01:44.605Z,6.80
2023-01-03T03:03:48.061Z,6.80
2023-01-03T03:05:52.550Z,6.80
2023-01-03T03:07:55.024Z,6.70
2023-01-03T03:10:15.683Z,6.70
2023-01-03T03:12:36.446Z,6.70
2023-01-03T03:14:40.678Z,6.70
2023-01-03T03:16:49.560Z,6.60
2023-01-03T03:18:53.956Z,6.60
2023-01-03T03:21:16.146Z,6.60
2023-01-03T03:23:38.493Z,6.50
2023-01-03T03:25:42.816Z,6.50
2023-01-03T03:28:04.124Z,6.50
2023-01-03T03:30:09.555Z,6.50
2023-01-03T03:32:12.338Z,6.60
2023-01-03T03:34:17.214Z,6.60
2023-01-03T03:36:21.839Z,6.60
2023-01-03T03:38:25.573Z,6.60
2023-01-03T03:40:46.846Z,6.60
2023-01-03T03:43:09.021Z,6.60
2023-01-03T03:45:14.936Z,6.70
2023-01-03T03:47:19.568Z,6.60
2023-01-03T03:49:38.542Z,6.50
2023-01-03T03:51:42.871Z,6.50
2023-01-03T03:53:46.242Z,6.50
2023-01-03T03:55:50.513Z,6.40
2023-01-03T03:57:54.227Z,6.40
2023-01-03T03:59:58.676Z,6.40
2023-01-03T04:02:03.299Z,6.40
2023-01-03T04:04:08.154Z,6.50
2023-01-03T04:06:13.261Z,6.50
2023-01-03T04:08:15.795Z,6.40
2023-01-03T04:10:19.794Z,6.40
2023-01-03T04:12:22.309Z,6.40
2023-01-03T04:14:24.891Z,6.30
2023-01-03T04:16:27.519Z,6.30
2023-01-03T04:18:30.239Z,6.30
2023-01-03T04:20:32.711Z,6.20
2023-01-03T04:22:35.230Z,6.20
2023-01-03T04:24:37.681Z,6.20
2023-01-03T04:26:40.190Z,6.20
2023-01-03T04:28:42.669Z,6.10
2023-01-03T04:30:45.966Z,6.10
2023-01-03T04:32:48.510Z,6.10
2023-01-03T04:34:50.978Z,6.00
2023-01-03T04:36:53.476Z,6.00
2023-01-03T04:38:55.948Z,6.00
2023-01-03T04:41:03.465Z,5.90
2023-01-03T04:43:23.938Z,5.90
2023-01-03T04:45:26.485Z,5.90
2023-01-03T04:47:29.007Z,5.90
2023-01-03T04:49:32.899Z,5.90
2023-01-03T04:51:35.499Z,5.90
2023-01-03T04:53:37.986Z,6.00
2023-01-03T04:55:46.131Z,5.90
2023-01-03T04:57:48.630Z,5.80
2023-01-03T04:59:51.103Z,5.80
2023-01-03T05:01:53.829Z,5.80
2023-01-03T05:03:58.877Z,5.80
2023-01-03T05:06:02.526Z,5.80
2023-01-03T05:08:06.232Z,5.70
2023-01-03T05:10:09.292Z,5.70
2023-01-03T05:12:11.963Z,5.60
2023-01-03T05:14:14.951Z,5.60
2023-01-03T05:16:17.613Z,5.60
2023-01-03T05:18:20.162Z,5.60
2023-01-03T05:20:41.460Z,5.60
2023-01-03T05:23:02.319Z,5.70
2023-01-03T05:25:23.684Z,5.70
2023-01-03T05:27:26.666Z,5.70
2023-01-03T05:29:29.651Z,5.70
2023-01-03T05:31:32.161Z,5.60
2023-01-03T05:33:34.813Z,5.70
2023-01-03T05:35:37.624Z,5.70
2023-01-03T05:37:40.088Z,5.70
2023-01-03T05:39:42.600Z,5.70
2023-01-03T05:42:00.210Z,5.70
2023-01-03T05:44:02.804Z,5.70
2023-01-03T05:46:05.838Z,5.70
2023-01-03T05:48:08.955Z,5.70
2023-01-03T05:50:11.479Z,5.70
2023-01-03T05:52:14.441Z,5.70
2023-01-03T05:54:18.215Z,5.70
2023-01-03T05:56:20.722Z,5.60
2023-01-03T05:58:23.191Z,5.70
2023-01-03T06:00:25.688Z,5.70
2023-01-03T06:02:28.678Z,5.60
2023-01-03T06:04:31.268Z,5.60
2023-01-03T06:06:33.832Z,5.60
2023-01-03T06:08:36.391Z,5.60
2023-01-03T06:10:40.699Z,5.50
2023-01-03T06:12:43.582Z,5.50
2023-01-03T06:14:46.113Z,5.60
2023-01-03T06:17:06.828Z,5.50
2023-01-03T06:19:09.640Z,5.50
2023-01-03T06:21:12.115Z,5.50
2023-01-03T06:23:14.664Z,5.40
2023-01-03T06:25:17.263Z,5.40
2023-01-03T06:27:19.696Z,5.40
2023-01-03T06:29:22.200Z,5.40
2023-01-03T06:31:24.772Z,5.40
2023-01-03T06:33:27.297Z,5.30
2023-01-03T06:35:29.795Z,5.30
2023-01-03T06:37:32.361Z,5.20
2023-01-03T06:39:34.977Z,5.20
2023-01-03T06:41:37.445Z,5.20
2023-01-03T06:43:39.946Z,5.10
2023-01-03T06:46:01.763Z,5.10
2023-01-03T06:48:23.523Z,5.00
2023-01-03T06:50:44.317Z,4.90
2023-01-03T06:53:05.048Z,4.90
2023-01-03T06:55:08.371Z,4.80
2023-01-03T06:57:10.875Z,4.70
2023-01-03T06:59:15.201Z,4.70
2023-01-03T07:01:18.962Z,4.70
2023-01-03T07:03:22.051Z,4.60
2023-01-03T07:05:24.684Z,4.60
2023-01-03T07:07:27.166Z,4.60
2023-01-03T07:09:29.649Z,4.60
2023-01-03T07:11:32.257Z,4.70
2023-01-03T07:13:52.907Z,4.60
2023-01-03T07:15:55.555Z,4.70
2023-01-03T07:17:58.023Z,4.70
2023-01-03T07:20:00.632Z,4.60
2023-01-03T07:22:03.504Z,4.60
2023-01-03T07:24:06.903Z,4.50
2023-01-03T07:26:09.461Z,4.50
2023-01-03T07:28:12.689Z,4.50
2023-01-03T07:30:15.287Z,4.60
2023-01-03T07:32:17.787Z,4.60
2023-01-03T07:34:20.287Z,4.70
2023-01-03T07:36:22.824Z,4.70
2023-01-03T07:38:25.290Z,4.80
2023-01-03T07:40:29.230Z,4.80
2023-01-03T07:42:49.971Z,4.80
2023-01-03T07:44:52.467Z,4.90
2023-01-03T07:46:55.081Z,4.80
2023-01-03T07:49:00.564Z,4.80
2023-01-03T07:51:03.670Z,4.80
2023-01-03T07:53:06.803Z,4.70
2023-01-03T07:55:09.450Z,4.80
2023-01-03T07:57:11.962Z,4.80
2023-01-03T07:59:14.438Z,4.80
2023-01-03T08:01:17.974Z,4.80
2023-01-03T08:03:20.571Z,4.90
2023-01-03T08:05:23.494Z,5.00
2023-01-03T08:07:26.022Z,5.10
2023-01-03T08:09:46.541Z,5.10
2023-01-03T08:12:07.151Z,5.30
2023-01-03T08:14:09.689Z,5.40
2023-01-03T08:16:13.283Z,5.40
2023-01-03T08:18:16.151Z,5.50
2023-01-03T08:20:18.599Z,5.60
2023-01-03T08:22:21.096Z,5.60
2023-01-03T08:24:23.747Z,5.70
2023-01-03T08:26:26.251Z,5.70
2023-01-03T08:28:28.957Z,5.80
2023-01-03T08:30:31.647Z,5.80
2023-01-03T08:32:34.666Z,5.90
2023-01-03T08:34:37.740Z,5.90
2023-01-03T08:36:42.036Z,5.90
2023-01-03T08:38:46.358Z,6.10
2023-01-03T08:40:48.927Z,6.10
2023-01-03T08:42:51.411Z,6.30
2023-01-03T08:44:56.226Z,6.30
2023-01-03T08:46:59.799Z,6.40
2023-01-03T08:49:02.307Z,6.60
2023-01-03T08:51:05.187Z,6.70
2023-01-03T08:53:07.659Z,6.90
2023-01-03T08:55:10.767Z,7.10
2023-01-03T08:57:13.285Z,7.20
2023-01-03T08:59:15.780Z,7.30
2023-01-03T09:01:20.156Z,7.40
2023-01-03T09:03:22.961Z,7.40
2023-01-03T09:05:25.803Z,7.50
2023-01-03T09:07:28.344Z,7.50
2023-01-03T09:09:30.910Z,7.60
2023-01-03T09:11:33.426Z,7.70
2023-01-03T09:13:36.610Z,7.70
2023-01-03T09:15:39.254Z,7.90
2023-01-03T09:17:43.890Z,7.90
2023-01-03T09:19:46.390Z,8.00
2023-01-03T09:21:48.875Z,8.10
2023-01-03T09:23:51.350Z,8.20
2023-01-03T09:25:53.940Z,8.30
2023-01-03T09:27:56.471Z,8.30
2023-01-03T09:29:58.975Z,8.40
2023-01-03T09:32:02.796Z,8.40
2023-01-03T09:34:05.414Z,8.50
2023-01-03T09:36:08.160Z,8.50
2023-01-03T09:38:10.641Z,8.40
2023-01-03T09:40:13.498Z,8.50
2023-01-03T09:42:36.279Z,8.40
2023-01-03T09:44:39.423Z,8.40
2023-01-03T09:46:42.005Z,8.40
2023-01-03T09:48:45.038Z,8.40
2023-01-03T09:53:10.228Z,8.40
2023-01-03T09:55:36.444Z,8.40
2023-01-03T09:57:57.140Z,8.30
2023-01-03T10:00:28.847Z,8.50
2023-01-03T10:05:01.748Z,9.00
2023-01-03T10:07:06.758Z,9.00
2023-01-03T10:09:14.220Z,9.00
2023-01-03T10:11:19.517Z,9.10
2023-01-03T10:13:25.827Z,9.20
2023-01-03T10:15:30.529Z,9.40
2023-01-03T10:17:35.733Z,9.60
2023-01-03T10:20:06.324Z,10.00
2023-01-03T10:22:10.725Z,10.10
2023-01-03T10:24:16.814Z,9.90
2023-01-03T10:26:19.382Z,9.80
2023-01-03T10:28:23.402Z,9.60
2023-01-03T10:30:29.249Z,9.90
2023-01-03T10:32:40.191Z,9.90
2023-01-03T10:34:42.674Z,9.80
2023-01-03T10:36:45.295Z,9.70
2023-01-03T10:38:53.035Z,9.70
2023-01-03T10:40:53.455Z,9.80
2023-01-03T10:42:56.002Z,10.30
2023-01-03T10:45:00.040Z,10.20
2023-01-03T10:47:09.492Z,10.00
2023-01-03T10:49:27.122Z,10.10
2023-01-03T10:51:26.699Z,10.30
2023-01-03T10:53:29.281Z,10.40
2023-01-03T10:55:33.547Z,10.10
2023-01-03T10:57:38.599Z,10.00
2023-01-03T10:59:42.890Z,10.00
2023-01-03T11:01:56.679Z,10.30
2023-01-03T11:04:09.795Z,10.60
2023-01-03T11:06:14.750Z,10.80
2023-01-03T11:08:19.026Z,10.50
2023-01-03T11:10:22.423Z,10.30
2023-01-03T11:12:27.555Z,10.20
2023-01-03T11:14:30.042Z,10.10
2023-01-03T11:16:32.717Z,10.30
2023-01-03T11:18:35.282Z,10.30
2023-01-03T11:20:41.316Z,10.40
2023-01-03T11:22:45.614Z,10.60
2023-01-03T11:24:55.046Z,10.80
2023-01-03T11:27:00.699Z,10.90
2023-01-03T11:29:25.158Z,10.90
2023-01-03T11:31:51.459Z,10.80
2023-01-03T11:33:58.545Z,10.60
2023-01-03T11:36:06.270Z,10.60
2023-01-03T11:38:12.807Z,10.30
2023-01-03T11:40:18.465Z,10.40
2023-01-03T11:42:25.707Z,10.40
2023-01-03T11:45:05.590Z,10.80
2023-01-03T11:49:40.321Z,10.80
2023-01-03T11:51:44.868Z,10.70
2023-01-03T11:53:51.147Z,10.60
2023-01-03T11:55:57.771Z,10.90
2023-01-03T11:58:05.272Z,10.50
2023-01-03T12:00:11.919Z,10.60
2023-01-03T12:02:42.821Z,10.60
2023-01-03T12:04:47.560Z,10.60
2023-01-03T12:06:56.638Z,10.50
2023-01-03T12:09:03.753Z,10.40
2023-01-03T12:11:08.627Z,10.30
2023-01-03T12:13:14.784Z,10.30
2023-01-03T12:15:19.875Z,10.30
2023-01-03T12:17:24.244Z,10.20
2023-01-03T12:19:28.928Z,10.20
2023-01-03T12:21:34.201Z,10.20
2023-01-03T12:23:38.926Z,10.20
2023-01-03T12:25:42.743Z,10.20
2023-01-03T12:27:46.996Z,10.20
2023-01-03T12:29:51.874Z,10.20
2023-01-03T12:31:56.323Z,10.20
2023-01-03T12:34:02.231Z,10.10
2023-01-03T12:36:06.728Z,10.10
2023-01-03T12:38:10.341Z,10.10
2023-01-03T12:40:16.686Z,10.10
2023-01-03T12:42:22.295Z,10.10
2023-01-03T12:44:25.890Z,10.10
2023-01-03T12:46:31.207Z,10.20
2023-01-03T12:48:41.330Z,10.30
2023-01-03T12:50:45.682Z,10.30
2023-01-03T12:52:50.259Z,10.30
2023-01-03T12:54:57.297Z,10.30
2023-01-03T12:57:07.367Z,10.30
2023-01-03T12:59:11.950Z,10.30
2023-01-03T13:01:17.261Z,10.30
2023-01-03T13:03:22.495Z,10.30
2023-01-03T13:05:27.026Z,10.30
2023-01-03T13:07:30.291Z,10.30
2023-01-03T13:09:36.371Z,10.40
2023-01-03T13:11:40.646Z,10.40
2023-01-03T13:13:49.087Z,10.40
2023-01-03T13:15:53.214Z,10.40
2023-01-03T13:17:57.574Z,10.40
2023-01-03T13:20:21.615Z,10.40
2023-01-03T13:22:36.484Z,10.30
2023-01-03T13:24:41.593Z,10.30
2023-01-03T13:26:58.143Z,10.30
2023-01-03T13:29:18.611Z,10.20
2023-01-03T13:31:49.359Z,10.20
2023-01-03T13:33:54.892Z,10.20
2023-01-03T13:35:58.837Z,10.20
2023-01-03T13:38:24.948Z,10.20
2023-01-03T13:40:39.715Z,10.20
2023-01-03T13:42:33.799Z,10.20
2023-01-03T13:44:36.326Z,10.30
2023-01-03T13:46:39.334Z,10.30
2023-01-03T13:48:43.638Z,10.30
2023-01-03T13:51:03.856Z,10.30
2023-01-03T13:53:08.134Z,10.20
2023-01-03T13:55:29.787Z,10.20
2023-01-03T13:57:51.979Z,10.20
2023-01-03T13:59:54.801Z,10.20
2023-01-03T14:02:00.759Z,10.20
2023-01-03T14:04:09.189Z,10.20
2023-01-03T14:06:31.043Z,10.20
2023-01-03T14:08:38.324Z,10.20
2023-01-03T14:10:56.093Z,10.20
2023-01-03T14:13:17.721Z,10.20
2023-01-03T14:15:26.418Z,10.20
2023-01-03T14:17:27.851Z,10.20
2023-01-03T14:19:31.991Z,10.20
2023-01-03T14:21:43.236Z,10.00
2023-01-03T14:23:59.670Z,10.00
2023-01-03T14:25:50.440Z,10.00
2023-01-03T14:27:52.929Z,9.90
2023-01-03T14:29:55.693Z,10.00
2023-01-03T14:31:59.799Z,9.90
2023-01-03T14:34:04.516Z,10.00
2023-01-03T14:36:08.323Z,9.90
2023-01-03T14:38:23.112Z,9.90
2023-01-03T14:40:25.591Z,10.00
2023-01-03T14:42:28.106Z,10.00
2023-01-03T14:44:30.952Z,10.00
2023-01-03T14:46:33.827Z,10.00
2023-01-03T14:48:36.559Z,9.90
2023-01-03T14:50:40.814Z,9.90
2023-01-03T14:52:45.538Z,9.90
2023-01-03T14:54:49.632Z,9.90
2023-01-03T14:56:54.092Z,9.80
2023-01-03T14:58:56.856Z,9.70
2023-01-03T15:01:00.983Z,9.70
2023-01-03T15:03:04.388Z,9.60
2023-01-03T15:05:11.604Z,9.60
2023-01-03T15:07:31.707Z,9.70
2023-01-03T15:09:35.240Z,9.60
2023-01-03T15:11:41.500Z,9.60
2023-01-03T15:13:45.955Z,9.60
2023-01-03T15:15:53.356Z,9.60
2023-01-03T15:17:59.207Z,9.50
2023-01-03T15:20:02.350Z,9.50
2023-01-03T15:22:10.547Z,9.50
2023-01-03T15:24:15.565Z,9.50
2023-01-03T15:26:20.737Z,9.40
2023-01-03T15:28:27.313Z,9.40
2023-01-03T15:30:31.739Z,9.40
2023-01-03T15:32:45.438Z,9.30
2023-01-03T15:34:49.662Z,9.20
2023-01-03T15:36:54.126Z,9.30
2023-01-03T15:38:56.798Z,9.20
2023-01-03T15:41:00.731Z,9.20
2023-01-03T15:43:23.193Z,9.20
2023-01-03T15:45:26.417Z,9.20
2023-01-03T15:47:30.701Z,9.20
2023-01-03T15:49:35.023Z,9.20
2023-01-03T15:51:37.627Z,9.20
2023-01-03T15:53:44.313Z,9.20
2023-01-03T15:55:45.034Z,9.30
2023-01-03T15:57:49.742Z,9.30
2023-01-03T15:59:54.053Z,9.20
2023-01-03T16:01:57.160Z,9.20
2023-01-03T16:04:00.162Z,9.30
2023-01-03T16:06:02.703Z,9.30
2023-01-03T16:08:09.962Z,9.30
2023-01-03T16:10:12.521Z,9.20
2023-01-03T16:12:16.516Z,9.30
2023-01-03T16:14:20.245Z,9.20
2023-01-03T16:16:25.276Z,9.30
2023-01-03T16:18:29.914Z,9.20
2023-01-03T16:20:32.450Z,9.20
2023-01-03T16:22:36.447Z,9.20
2023-01-03T16:24:39.751Z,9.20
2023-01-03T16:26:42.304Z,9.20
2023-01-03T16:28:44.755Z,9.20
2023-01-03T16:30:47.361Z,9.20
2023-01-03T16:32:49.828Z,9.20
2023-01-03T16:34:52.730Z,9.20
2023-01-03T16:36:55.230Z,9.20
2023-01-03T16:38:57.896Z,9.20
2023-01-03T16:41:00.409Z,9.20
2023-01-03T16:43:02.898Z,9.10
2023-01-03T16:45:06.678Z,9.00
2023-01-03T16:47:12.344Z,9.00
2023-01-03T16:49:14.838Z,8.90
2023-01-03T16:51:19.071Z,8.90
2023-01-03T16:53:27.099Z,8.80
2023-01-03T16:55:31.901Z,8.80
2023-01-03T16:57:34.678Z,8.70
2023-01-03T16:59:37.238Z,8.70
2023-01-03T17:01:39.813Z,8.70
2023-01-03T17:03:42.732Z,8.60
2023-01-03T17:05:45.844Z,8.50
2023-01-03T17:07:50.217Z,8.40
2023-01-03T17:09:52.733Z,8.40
2023-01-03T17:11:55.216Z,8.30
2023-01-03T17:13:59.542Z,8.30
2023-01-03T17:16:02.911Z,8.30
2023-01-03T17:18:05.540Z,8.20
2023-01-03T17:20:13.747Z,8.20
2023-01-03T17:22:17.741Z,8.20
2023-01-03T17:24:22.008Z,8.10
2023-01-03T17:26:25.114Z,8.00
2023-01-03T17:28:28.848Z,8.00
2023-01-03T17:30:31.386Z,8.00
2023-01-03T17:32:34.058Z,7.90
2023-01-03T17:34:36.616Z,7.80
2023-01-03T17:36:39.929Z,7.80
2023-01-03T17:38:42.829Z,7.80
2023-01-03T17:40:46.768Z,7.80
2023-01-03T17:42:51.684Z,7.70
2023-01-03T17:45:12.442Z,7.60
2023-01-03T17:47:39.692Z,7.60
2023-01-03T17:49:42.166Z,7.60
2023-01-03T17:51:44.792Z,7.60
2023-01-03T17:53:49.084Z,7.50
2023-01-03T17:55:51.674Z,7.50
2023-01-03T17:57:54.566Z,7.50
2023-01-03T17:59:57.154Z,7.50
2023-01-03T18:01:59.932Z,7.50
2023-01-03T18:04:02.921Z,7.50
2023-01-03T18:06:07.565Z,7.40
2023-01-03T18:08:12.234Z,7.40
2023-01-03T18:10:16.203Z,7.40
2023-01-03T18:12:19.547Z,7.40
2023-01-03T18:14:22.182Z,7.50
2023-01-03T18:16:24.764Z,7.50
2023-01-03T18:18:28.138Z,7.60
2023-01-03T18:20:30.617Z,7.60
2023-01-03T18:22:33.246Z,7.60
2023-01-03T18:24:35.731Z,7.70
2023-01-03T18:26:39.671Z,7.70
2023-01-03T18:28:42.471Z,7.80
2023-01-03T18:30:45.020Z,7.70
2023-01-03T18:32:47.743Z,7.80
2023-01-03T18:34:50.211Z,7.80
2023-01-03T18:36:53.083Z,7.80
2023-01-03T18:38:58.444Z,7.80
2023-01-03T18:41:05.508Z,7.80
2023-01-03T18:43:10.374Z,7.80
2023-01-03T18:45:14.243Z,7.90
2023-01-03T18:47:16.739Z,7.90
2023-01-03T18:49:19.873Z,7.90
2023-01-03T18:51:23.583Z,8.00
2023-01-03T18:53:28.146Z,8.00
2023-01-03T18:55:31.892Z,8.00
2023-01-03T18:57:34.380Z,8.00
2023-01-03T18:59:36.925Z,8.00
2023-01-03T19:01:39.663Z,8.00
2023-01-03T19:03:43.658Z,8.00
2023-01-03T19:05:46.224Z,8.00
2023-01-03T19:07:50.158Z,7.90
2023-01-03T19:09:52.744Z,8.00
2023-01-03T19:11:56.014Z,7.90
2023-01-03T19:14:01.645Z,7.90
2023-01-03T19:16:04.873Z,7.90
2023-01-03T19:18:09.614Z,7.90
2023-01-03T19:20:12.293Z,7.90
2023-01-03T19:22:19.502Z,7.90
2023-01-03T19:24:23.488Z,7.90
2023-01-03T19:26:28.192Z,7.90
2023-01-03T19:28:31.249Z,7.90
2023-01-03T19:30:38.050Z,8.00
2023-01-03T19:32:40.859Z,8.00
2023-01-03T19:34:43.352Z,8.00
2023-01-03T19:36:46.305Z,8.10
2023-01-03T19:38:49.091Z,8.10
2023-01-03T19:40:52.347Z,8.00
2023-01-03T19:42:56.740Z,8.00
2023-01-03T19:45:01.028Z,8.00
2023-01-03T19:47:04.048Z,8.00
2023-01-03T19:49:10.383Z,8.00
2023-01-03T19:51:12.950Z,8.00
2023-01-03T19:53:15.970Z,8.00
2023-01-03T19:55:19.018Z,8.00
2023-01-03T19:57:23.315Z,8.00
2023-01-03T19:59:28.028Z,8.00
2023-01-03T20:01:50.577Z,8.10
2023-01-03T20:03:38.807Z,8.10
2023-01-03T20:05:41.620Z,8.10
2023-01-03T20:07:44.329Z,8.10
2023-01-03T20:09:46.983Z,8.20
2023-01-03T20:11:51.285Z,8.20
2023-01-03T20:13:53.752Z,8.20
2023-01-03T20:15:58.914Z,8.10
2023-01-03T20:18:03.182Z,8.10
2023-01-03T20:20:06.507Z,8.20
2023-01-03T20:22:19.755Z,8.10
2023-01-03T20:24:18.711Z,8.10
2023-01-03T20:26:22.397Z,8.00
2023-01-03T20:28:27.323Z,8.10
2023-01-03T20:30:31.016Z,8.10
2023-01-03T20:32:33.524Z,8.00
2023-01-03T20:34:36.069Z,8.00
2023-01-03T20:36:40.652Z,8.00
2023-01-03T20:38:44.161Z,8.10
2023-01-03T20:40:46.805Z,8.00
2023-01-03T20:42:49.386Z,8.00
2023-01-03T20:44:51.943Z,8.00
2023-01-03T20:46:55.030Z,8.00
2023-01-03T20:48:59.403Z,8.00
2023-01-03T20:51:01.908Z,7.90
2023-01-03T20:53:04.525Z,7.90
2023-01-03T20:55:07.367Z,7.90
2023-01-03T20:57:13.613Z,7.90
2023-01-03T20:59:16.964Z,7.90
2023-01-03T21:01:19.533Z,7.90
2023-01-03T21:03:22.299Z,7.90
2023-01-03T21:05:24.855Z,7.80
2023-01-03T21:07:29.877Z,7.90
2023-01-03T21:09:32.373Z,7.90
2023-01-03T21:11:35.205Z,7.80
2023-01-03T21:13:37.702Z,7.80
2023-01-03T21:15:40.198Z,7.90
2023-01-03T21:17:48.759Z,7.90
2023-01-03T21:19:47.081Z,7.90
2023-01-03T21:21:50.492Z,7.90
2023-01-03T21:23:53.779Z,7.90
2023-01-03T21:25:56.270Z,8.00
2023-01-03T21:27:59.059Z,7.90
2023-01-03T21:30:01.554Z,7.90
2023-01-03T21:32:04.502Z,7.90
2023-01-03T21:34:07.594Z,7.90
2023-01-03T21:36:11.651Z,8.00
2023-01-03T21:38:14.158Z,8.00
2023-01-03T21:40:17.632Z,8.00
2023-01-03T21:42:37.991Z,8.00
2023-01-03T21:44:40.510Z,8.00
2023-01-03T21:46:43.029Z,8.00
2023-01-03T21:48:45.515Z,7.90
2023-01-03T21:50:49.284Z,7.90
2023-01-03T21:52:52.234Z,7.90
2023-01-03T21:54:54.702Z,7.90
2023-01-03T21:56:57.332Z,7.90
2023-01-03T21:59:00.046Z,7.80
2023-01-03T22:01:09.749Z,7.90
2023-01-03T22:03:31.217Z,7.90
2023-01-03T22:05:33.835Z,7.90
2023-01-03T22:07:36.410Z,8.00
2023-01-03T22:09:57.102Z,7.90
2023-01-03T22:11:59.735Z,7.90
2023-01-03T22:14:02.229Z,8.00
2023-01-03T22:16:05.486Z,8.00
2023-01-03T22:18:09.955Z,8.00
2023-01-03T22:20:13.404Z,7.90
2023-01-03T22:22:15.938Z,7.90
2023-01-03T22:24:18.542Z,7.90
2023-01-03T22:26:21.036Z,8.00
2023-01-03T22:28:24.711Z,8.00
2023-01-03T22:30:27.238Z,8.00
2023-01-03T22:32:29.771Z,8.00
2023-01-03T22:34:32.297Z,8.10
2023-01-03T22:36:34.766Z,8.10
2023-01-03T22:38:37.792Z,8.00
2023-01-03T22:40:40.297Z,8.10
2023-01-03T22:42:42.913Z,8.00
2023-01-03T22:44:45.417Z,7.90
2023-01-03T22:46:48.282Z,8.00
2023-01-03T22:48:50.937Z,8.00
2023-01-03T22:50:53.439Z,8.00
2023-01-03T22:52:55.919Z,8.00
2023-01-03T22:54:58.414Z,8.10
2023-01-03T22:57:00.889Z,8.00
2023-01-03T22:59:03.415Z,8.10
2023-01-03T23:01:08.209Z,8.10
2023-01-03T23:03:12.230Z,8.10
2023-01-03T23:05:15.407Z,8.00
2023-01-03T23:07:18.005Z,8.10
2023-01-03T23:09:20.725Z,8.30
2023-01-03T23:11:45.682Z,8.30
2023-01-03T23:13:48.126Z,8.30
2023-01-03T23:15:50.615Z,8.40
2023-01-03T23:17:56.534Z,8.30
2023-01-03T23:19:59.791Z,8.30
2023-01-03T23:22:02.254Z,8.30
2023-01-03T23:24:05.184Z,8.30
2023-01-03T23:26:07.729Z,8.30
2023-01-03T23:28:10.203Z,8.30
2023-01-03T23:30:13.385Z,8.30
2023-01-03T23:32:16.020Z,8.40
2023-01-03T23:34:18.510Z,8.50
2023-01-03T23:36:21.072Z,8.50
2023-01-03T23:38:23.961Z,8.50
2023-01-03T23:40:26.457Z,8.50
2023-01-03T23:42:29.387Z,8.50
2023-01-03T23:44:33.018Z,8.40
2023-01-03T23:46:36.152Z,8.50
2023-01-03T23:48:39.340Z,8.50
2023-01-03T23:50:42.375Z,8.50
2023-01-03T23:52:45.314Z,8.50
2023-01-03T23:54:50.122Z,8.50
2023-01-03T23:56:53.816Z,8.50
2023-01-03T23:58:56.280Z,8.50
